sensor_id;sensor_type;location;lat;lon;timestamp;temperature;humidity
35240;DHT22;21376;50.954;4.716;2022-07-10T00:01:34;13.90;99.90
35240;DHT22;21376;50.954;4.716;2022-07-10T00:04:02;13.90;99.90
35240;DHT22;21376;50.954;4.716;2022-07-10T00:06:31;13.90;99.90
35240;DHT22;21376;50.954;4.716;2022-07-10T00:19:46;13.70;99.90
35240;DHT22;21376;50.954;4.716;2022-07-10T00:22:18;13.60;99.90
35240;DHT22;21376;50.954;4.716;2022-07-10T00:24:47;13.60;99.90
35240;DHT22;21376;50.954;4.716;2022-07-10T00:27:12;13.50;99.90
35240;DHT22;21376;50.954;4.716;2022-07-10T00:29:41;13.40;99.90
35240;DHT22;21376;50.954;4.716;2022-07-10T00:32:07;13.40;99.90
35240;DHT22;21376;50.954;4.716;2022-07-10T00:34:36;13.30;99.90
35240;DHT22;21376;50.954;4.716;2022-07-10T00:37:08;13.30;99.90
35240;DHT22;21376;50.954;4.716;2022-07-10T00:39:41;13.40;99.90
35240;DHT22;21376;50.954;4.716;2022-07-10T00:42:14;13.30;99.90
35240;DHT22;21376;50.954;4.716;2022-07-10T00:44:41;13.30;99.90
35240;DHT22;21376;50.954;4.716;2022-07-10T00:47:11;13.20;99.90
35240;DHT22;21376;50.954;4.716;2022-07-10T00:49:40;13.20;99.90
35240;DHT22;21376;50.954;4.716;2022-07-10T00:52:12;13.20;99.90
35240;DHT22;21376;50.954;4.716;2022-07-10T00:54:46;13.20;99.90
35240;DHT22;21376;50.954;4.716;2022-07-10T00:57:16;13.20;99.90
35240;DHT22;21376;50.954;4.716;2022-07-10T00:59:49;13.20;99.90
35240;DHT22;21376;50.954;4.716;2022-07-10T01:02:18;13.10;99.90
35240;DHT22;21376;50.954;4.716;2022-07-10T01:04:46;13.20;99.90
35240;DHT22;21376;50.954;4.716;2022-07-10T01:07:22;13.20;99.90
35240;DHT22;21376;50.954;4.716;2022-07-10T01:09:51;13.10;99.90
35240;DHT22;21376;50.954;4.716;2022-07-10T01:12:17;13.10;99.90
35240;DHT22;21376;50.954;4.716;2022-07-10T01:14:46;13.10;99.90
35240;DHT22;21376;50.954;4.716;2022-07-10T01:17:15;13.00;99.90
35240;DHT22;21376;50.954;4.716;2022-07-10T01:35:21;12.80;99.90
35240;DHT22;21376;50.954;4.716;2022-07-10T01:37:49;12.70;99.90
35240;DHT22;21376;50.954;4.716;2022-07-10T01:40:15;12.60;99.90
35240;DHT22;21376;50.954;4.716;2022-07-10T01:42:46;12.50;99.90
35240;DHT22;21376;50.954;4.716;2022-07-10T01:45:28;12.50;99.90
35240;DHT22;21376;50.954;4.716;2022-07-10T01:47:57;12.50;99.90
35240;DHT22;21376;50.954;4.716;2022-07-10T01:50:26;12.50;99.90
35240;DHT22;21376;50.954;4.716;2022-07-10T01:53:15;12.60;99.90
35240;DHT22;21376;50.954;4.716;2022-07-10T01:55:46;12.50;99.90
35240;DHT22;21376;50.954;4.716;2022-07-10T01:58:15;12.50;99.90
35240;DHT22;21376;50.954;4.716;2022-07-10T02:00:44;12.40;99.90
35240;DHT22;21376;50.954;4.716;2022-07-10T02:06:34;12.40;99.90
35240;DHT22;21376;50.954;4.716;2022-07-10T02:09:01;12.40;99.90
35240;DHT22;21376;50.954;4.716;2022-07-10T02:11:30;12.30;99.90
35240;DHT22;21376;50.954;4.716;2022-07-10T02:13:59;12.30;99.90
35240;DHT22;21376;50.954;4.716;2022-07-10T02:16:28;12.20;99.90
35240;DHT22;21376;50.954;4.716;2022-07-10T02:18:57;12.10;99.90
35240;DHT22;21376;50.954;4.716;2022-07-10T02:21:26;12.00;99.90
35240;DHT22;21376;50.954;4.716;2022-07-10T02:23:55;12.00;99.90
35240;DHT22;21376;50.954;4.716;2022-07-10T02:26:23;12.00;99.90
35240;DHT22;21376;50.954;4.716;2022-07-10T02:28:52;11.90;99.90
35240;DHT22;21376;50.954;4.716;2022-07-10T02:31:21;12.00;99.90
35240;DHT22;21376;50.954;4.716;2022-07-10T02:33:50;12.00;99.90
35240;DHT22;21376;50.954;4.716;2022-07-10T02:36:19;12.00;99.90
35240;DHT22;21376;50.954;4.716;2022-07-10T02:38:48;11.90;99.90
35240;DHT22;21376;50.954;4.716;2022-07-10T02:41:17;11.90;99.90
35240;DHT22;21376;50.954;4.716;2022-07-10T02:43:46;11.80;99.90
35240;DHT22;21376;50.954;4.716;2022-07-10T02:46:18;11.80;99.90
35240;DHT22;21376;50.954;4.716;2022-07-10T02:48:47;11.90;99.90
35240;DHT22;21376;50.954;4.716;2022-07-10T02:51:15;11.90;99.90
35240;DHT22;21376;50.954;4.716;2022-07-10T02:53:44;11.70;99.90
35240;DHT22;21376;50.954;4.716;2022-07-10T02:56:12;11.90;99.90
35240;DHT22;21376;50.954;4.716;2022-07-10T02:58:41;12.00;99.90
35240;DHT22;21376;50.954;4.716;2022-07-10T03:01:11;11.90;99.90
35240;DHT22;21376;50.954;4.716;2022-07-10T03:03:43;11.80;99.90
35240;DHT22;21376;50.954;4.716;2022-07-10T03:06:11;11.60;99.90
35240;DHT22;21376;50.954;4.716;2022-07-10T03:08:56;11.60;99.90
35240;DHT22;21376;50.954;4.716;2022-07-10T03:11:25;11.60;99.90
35240;DHT22;21376;50.954;4.716;2022-07-10T03:13:52;11.40;99.90
35240;DHT22;21376;50.954;4.716;2022-07-10T03:16:19;11.60;99.90
35240;DHT22;21376;50.954;4.716;2022-07-10T03:18:48;11.60;99.90
35240;DHT22;21376;50.954;4.716;2022-07-10T03:21:14;11.50;99.90
35240;DHT22;21376;50.954;4.716;2022-07-10T03:23:43;11.50;99.90
35240;DHT22;21376;50.954;4.716;2022-07-10T03:26:11;11.60;99.90
35240;DHT22;21376;50.954;4.716;2022-07-10T03:28:50;11.60;99.90
35240;DHT22;21376;50.954;4.716;2022-07-10T03:31:23;11.70;99.90
35240;DHT22;21376;50.954;4.716;2022-07-10T03:33:52;11.70;99.90
35240;DHT22;21376;50.954;4.716;2022-07-10T03:36:21;11.70;99.90
35240;DHT22;21376;50.954;4.716;2022-07-10T03:39:00;11.60;99.90
35240;DHT22;21376;50.954;4.716;2022-07-10T03:41:29;11.60;99.90
35240;DHT22;21376;50.954;4.716;2022-07-10T03:43:58;11.60;99.90
35240;DHT22;21376;50.954;4.716;2022-07-10T03:46:27;11.70;99.90
35240;DHT22;21376;50.954;4.716;2022-07-10T03:48:55;11.70;99.90
35240;DHT22;21376;50.954;4.716;2022-07-10T03:51:28;11.70;99.90
35240;DHT22;21376;50.954;4.716;2022-07-10T03:54:05;11.80;99.90
35240;DHT22;21376;50.954;4.716;2022-07-10T03:56:34;11.90;99.90
35240;DHT22;21376;50.954;4.716;2022-07-10T03:59:20;11.80;99.90
35240;DHT22;21376;50.954;4.716;2022-07-10T04:01:49;11.70;99.90
35240;DHT22;21376;50.954;4.716;2022-07-10T04:07:06;11.70;99.90
35240;DHT22;21376;50.954;4.716;2022-07-10T04:12:52;11.60;99.90
35240;DHT22;21376;50.954;4.716;2022-07-10T04:15:19;11.60;99.90
35240;DHT22;21376;50.954;4.716;2022-07-10T04:17:51;11.70;99.90
35240;DHT22;21376;50.954;4.716;2022-07-10T04:20:20;11.80;99.90
35240;DHT22;21376;50.954;4.716;2022-07-10T04:22:48;11.80;99.90
35240;DHT22;21376;50.954;4.716;2022-07-10T04:25:32;11.90;99.90
35240;DHT22;21376;50.954;4.716;2022-07-10T04:27:59;11.90;99.90
35240;DHT22;21376;50.954;4.716;2022-07-10T04:30:24;11.80;99.90
35240;DHT22;21376;50.954;4.716;2022-07-10T04:32:50;11.80;99.90
35240;DHT22;21376;50.954;4.716;2022-07-10T04:35:17;12.10;99.90
35240;DHT22;21376;50.954;4.716;2022-07-10T04:37:59;12.10;99.90
35240;DHT22;21376;50.954;4.716;2022-07-10T04:40:28;12.30;99.90
35240;DHT22;21376;50.954;4.716;2022-07-10T04:42:57;12.40;99.90
35240;DHT22;21376;50.954;4.716;2022-07-10T04:45:26;12.50;99.90
35240;DHT22;21376;50.954;4.716;2022-07-10T04:47:52;12.80;99.90
35240;DHT22;21376;50.954;4.716;2022-07-10T04:50:21;12.90;99.90
35240;DHT22;21376;50.954;4.716;2022-07-10T04:52:48;13.00;99.90
35240;DHT22;21376;50.954;4.716;2022-07-10T04:55:17;13.30;99.90
35240;DHT22;21376;50.954;4.716;2022-07-10T04:57:49;13.50;99.90
35240;DHT22;21376;50.954;4.716;2022-07-10T05:00:24;13.50;99.90
35240;DHT22;21376;50.954;4.716;2022-07-10T05:02:53;13.60;99.90
35240;DHT22;21376;50.954;4.716;2022-07-10T05:05:18;13.90;99.90
35240;DHT22;21376;50.954;4.716;2022-07-10T05:07:47;13.90;99.90
35240;DHT22;21376;50.954;4.716;2022-07-10T05:10:16;14.10;99.90
35240;DHT22;21376;50.954;4.716;2022-07-10T05:12:45;14.00;99.90
35240;DHT22;21376;50.954;4.716;2022-07-10T05:15:14;14.30;99.90
35240;DHT22;21376;50.954;4.716;2022-07-10T05:17:57;14.60;99.90
35240;DHT22;21376;50.954;4.716;2022-07-10T05:20:26;14.90;99.90
35240;DHT22;21376;50.954;4.716;2022-07-10T05:22:55;14.90;99.90
35240;DHT22;21376;50.954;4.716;2022-07-10T05:25:28;15.10;99.90
35240;DHT22;21376;50.954;4.716;2022-07-10T05:28:18;14.90;99.90
35240;DHT22;21376;50.954;4.716;2022-07-10T05:30:44;15.20;99.90
35240;DHT22;21376;50.954;4.716;2022-07-10T05:33:13;15.20;99.90
35240;DHT22;21376;50.954;4.716;2022-07-10T05:35:40;15.10;99.90
35240;DHT22;21376;50.954;4.716;2022-07-10T05:38:09;15.10;99.90
35240;DHT22;21376;50.954;4.716;2022-07-10T05:40:44;15.20;99.90
35240;DHT22;21376;50.954;4.716;2022-07-10T05:43:12;15.10;99.90
35240;DHT22;21376;50.954;4.716;2022-07-10T05:45:40;14.90;99.90
35240;DHT22;21376;50.954;4.716;2022-07-10T05:48:05;15.10;99.90
35240;DHT22;21376;50.954;4.716;2022-07-10T05:50:36;15.50;99.90
35240;DHT22;21376;50.954;4.716;2022-07-10T05:53:04;15.70;99.90
35240;DHT22;21376;50.954;4.716;2022-07-10T05:55:31;15.90;99.90
35240;DHT22;21376;50.954;4.716;2022-07-10T05:57:59;15.80;99.90
35240;DHT22;21376;50.954;4.716;2022-07-10T06:00:26;16.20;99.90
35240;DHT22;21376;50.954;4.716;2022-07-10T06:02:51;16.40;99.90
35240;DHT22;21376;50.954;4.716;2022-07-10T06:05:17;16.10;99.90
35240;DHT22;21376;50.954;4.716;2022-07-10T06:07:46;16.40;99.90
35240;DHT22;21376;50.954;4.716;2022-07-10T06:10:15;16.30;99.90
35240;DHT22;21376;50.954;4.716;2022-07-10T06:12:54;16.60;99.90
35240;DHT22;21376;50.954;4.716;2022-07-10T06:15:23;16.70;99.90
35240;DHT22;21376;50.954;4.716;2022-07-10T06:17:49;16.80;99.90
35240;DHT22;21376;50.954;4.716;2022-07-10T06:20:15;17.00;99.90
35240;DHT22;21376;50.954;4.716;2022-07-10T06:22:42;17.20;99.90
35240;DHT22;21376;50.954;4.716;2022-07-10T06:25:09;17.50;99.90
35240;DHT22;21376;50.954;4.716;2022-07-10T06:27:35;17.50;99.90
35240;DHT22;21376;50.954;4.716;2022-07-10T06:30:03;17.50;99.90
35240;DHT22;21376;50.954;4.716;2022-07-10T06:32:30;17.90;99.90
35240;DHT22;21376;50.954;4.716;2022-07-10T06:34:58;17.80;99.90
35240;DHT22;21376;50.954;4.716;2022-07-10T06:37:24;17.60;99.90
35240;DHT22;21376;50.954;4.716;2022-07-10T06:40:11;17.70;99.90
35240;DHT22;21376;50.954;4.716;2022-07-10T06:42:38;18.00;99.90
35240;DHT22;21376;50.954;4.716;2022-07-10T06:45:06;18.00;99.90
35240;DHT22;21376;50.954;4.716;2022-07-10T06:47:32;18.10;99.90
35240;DHT22;21376;50.954;4.716;2022-07-10T06:50:21;18.30;99.90
35240;DHT22;21376;50.954;4.716;2022-07-10T06:53:18;18.50;99.90
35240;DHT22;21376;50.954;4.716;2022-07-10T06:56:06;19.00;99.90
35240;DHT22;21376;50.954;4.716;2022-07-10T06:58:33;19.00;99.90
35240;DHT22;21376;50.954;4.716;2022-07-10T07:01:05;19.00;99.90
35240;DHT22;21376;50.954;4.716;2022-07-10T07:03:43;18.80;99.90
35240;DHT22;21376;50.954;4.716;2022-07-10T07:06:30;19.00;99.90
35240;DHT22;21376;50.954;4.716;2022-07-10T07:09:01;19.40;99.90
35240;DHT22;21376;50.954;4.716;2022-07-10T07:11:28;19.50;99.90
35240;DHT22;21376;50.954;4.716;2022-07-10T07:18:50;20.20;99.90
35240;DHT22;21376;50.954;4.716;2022-07-10T07:21:19;20.10;99.90
35240;DHT22;21376;50.954;4.716;2022-07-10T07:24:12;20.10;99.90
35240;DHT22;21376;50.954;4.716;2022-07-10T07:26:45;20.40;99.90
35240;DHT22;21376;50.954;4.716;2022-07-10T07:29:15;21.10;99.90
35240;DHT22;21376;50.954;4.716;2022-07-10T07:31:44;21.80;99.90
35240;DHT22;21376;50.954;4.716;2022-07-10T07:34:16;23.30;99.90
35240;DHT22;21376;50.954;4.716;2022-07-10T07:36:45;24.60;99.90
35240;DHT22;21376;50.954;4.716;2022-07-10T07:39:17;27.30;99.90
35240;DHT22;21376;50.954;4.716;2022-07-10T07:41:45;29.30;99.50
35240;DHT22;21376;50.954;4.716;2022-07-10T07:44:13;30.40;93.50
35240;DHT22;21376;50.954;4.716;2022-07-10T07:46:43;32.80;90.10
35240;DHT22;21376;50.954;4.716;2022-07-10T07:49:12;33.50;80.70
35240;DHT22;21376;50.954;4.716;2022-07-10T07:51:41;34.60;76.10
35240;DHT22;21376;50.954;4.716;2022-07-10T07:54:09;35.00;71.20
35240;DHT22;21376;50.954;4.716;2022-07-10T07:56:36;34.20;70.70
35240;DHT22;21376;50.954;4.716;2022-07-10T07:59:05;34.30;64.80
35240;DHT22;21376;50.954;4.716;2022-07-10T08:01:34;34.80;65.90
35240;DHT22;21376;50.954;4.716;2022-07-10T08:04:03;35.00;64.50
35240;DHT22;21376;50.954;4.716;2022-07-10T08:06:36;36.00;62.70
35240;DHT22;21376;50.954;4.716;2022-07-10T08:09:04;35.10;60.70
35240;DHT22;21376;50.954;4.716;2022-07-10T08:11:33;35.70;58.60
35240;DHT22;21376;50.954;4.716;2022-07-10T08:14:00;36.40;58.60
35240;DHT22;21376;50.954;4.716;2022-07-10T08:16:26;35.90;57.30
35240;DHT22;21376;50.954;4.716;2022-07-10T08:18:52;35.50;56.30
35240;DHT22;21376;50.954;4.716;2022-07-10T08:21:19;35.50;59.80
35240;DHT22;21376;50.954;4.716;2022-07-10T08:23:45;36.10;58.00
35240;DHT22;21376;50.954;4.716;2022-07-10T08:26:12;37.50;56.80
35240;DHT22;21376;50.954;4.716;2022-07-10T08:28:40;39.00;56.40
35240;DHT22;21376;50.954;4.716;2022-07-10T08:31:09;38.60;52.00
35240;DHT22;21376;50.954;4.716;2022-07-10T08:33:38;38.10;54.70
35240;DHT22;21376;50.954;4.716;2022-07-10T08:36:28;38.80;50.60
35240;DHT22;21376;50.954;4.716;2022-07-10T08:38:55;39.40;48.20
35240;DHT22;21376;50.954;4.716;2022-07-10T08:41:25;39.00;48.80
35240;DHT22;21376;50.954;4.716;2022-07-10T08:50:24;32.50;56.00
35240;DHT22;21376;50.954;4.716;2022-07-10T08:53:39;31.50;59.10
35240;DHT22;21376;50.954;4.716;2022-07-10T08:56:05;31.10;58.30
35240;DHT22;21376;50.954;4.716;2022-07-10T08:58:38;31.50;58.90
35240;DHT22;21376;50.954;4.716;2022-07-10T09:01:09;33.30;58.80
35240;DHT22;21376;50.954;4.716;2022-07-10T09:03:41;33.60;55.50
35240;DHT22;21376;50.954;4.716;2022-07-10T09:06:13;32.70;56.60
35240;DHT22;21376;50.954;4.716;2022-07-10T09:09:04;31.80;59.50
35240;DHT22;21376;50.954;4.716;2022-07-10T09:11:34;30.70;61.10
35240;DHT22;21376;50.954;4.716;2022-07-10T09:14:05;32.20;61.00
35240;DHT22;21376;50.954;4.716;2022-07-10T09:16:41;33.10;59.00
35240;DHT22;21376;50.954;4.716;2022-07-10T09:19:27;34.30;55.50
35240;DHT22;21376;50.954;4.716;2022-07-10T09:22:02;34.20;55.40
35240;DHT22;21376;50.954;4.716;2022-07-10T09:24:40;33.80;55.50
35240;DHT22;21376;50.954;4.716;2022-07-10T09:27:07;33.30;58.20
35240;DHT22;21376;50.954;4.716;2022-07-10T09:29:48;33.40;58.40
35240;DHT22;21376;50.954;4.716;2022-07-10T09:32:17;34.60;54.70
35240;DHT22;21376;50.954;4.716;2022-07-10T09:41:43;37.40;50.10
35240;DHT22;21376;50.954;4.716;2022-07-10T09:44:15;36.70;50.30
35240;DHT22;21376;50.954;4.716;2022-07-10T09:46:44;36.60;52.50
35240;DHT22;21376;50.954;4.716;2022-07-10T09:49:12;35.50;53.10
35240;DHT22;21376;50.954;4.716;2022-07-10T09:51:42;35.70;57.70
35240;DHT22;21376;50.954;4.716;2022-07-10T09:54:12;33.80;53.30
35240;DHT22;21376;50.954;4.716;2022-07-10T09:56:46;32.50;57.30
35240;DHT22;21376;50.954;4.716;2022-07-10T10:01:42;31.50;59.80
35240;DHT22;21376;50.954;4.716;2022-07-10T10:04:21;31.30;57.80
35240;DHT22;21376;50.954;4.716;2022-07-10T10:06:55;30.80;59.10
35240;DHT22;21376;50.954;4.716;2022-07-10T10:09:45;30.40;58.90
35240;DHT22;21376;50.954;4.716;2022-07-10T10:12:21;29.60;60.10
35240;DHT22;21376;50.954;4.716;2022-07-10T10:14:49;28.70;63.80
35240;DHT22;21376;50.954;4.716;2022-07-10T10:17:17;28.20;67.40
35240;DHT22;21376;50.954;4.716;2022-07-10T10:19:47;27.70;67.80
35240;DHT22;21376;50.954;4.716;2022-07-10T10:22:36;27.80;68.80
35240;DHT22;21376;50.954;4.716;2022-07-10T10:25:09;27.80;66.00
35240;DHT22;21376;50.954;4.716;2022-07-10T10:27:57;27.40;67.40
35240;DHT22;21376;50.954;4.716;2022-07-10T10:30:55;27.30;68.50
35240;DHT22;21376;50.954;4.716;2022-07-10T10:36:10;27.00;70.20
35240;DHT22;21376;50.954;4.716;2022-07-10T10:39:18;26.20;73.40
35240;DHT22;21376;50.954;4.716;2022-07-10T10:41:52;26.20;73.80
35240;DHT22;21376;50.954;4.716;2022-07-10T10:44:21;26.40;74.70
35240;DHT22;21376;50.954;4.716;2022-07-10T10:49:22;26.40;74.80
35240;DHT22;21376;50.954;4.716;2022-07-10T10:51:58;26.80;75.80
35240;DHT22;21376;50.954;4.716;2022-07-10T10:54:28;27.40;72.50
35240;DHT22;21376;50.954;4.716;2022-07-10T10:57:16;27.40;75.00
35240;DHT22;21376;50.954;4.716;2022-07-10T10:59:52;26.80;72.80
35240;DHT22;21376;50.954;4.716;2022-07-10T11:07:09;27.20;70.90
35240;DHT22;21376;50.954;4.716;2022-07-10T11:09:38;27.70;69.30
35240;DHT22;21376;50.954;4.716;2022-07-10T11:12:16;28.30;72.00
35240;DHT22;21376;50.954;4.716;2022-07-10T11:14:58;28.10;72.10
35240;DHT22;21376;50.954;4.716;2022-07-10T11:17:28;27.50;72.30
35240;DHT22;21376;50.954;4.716;2022-07-10T11:19:54;27.30;71.70
35240;DHT22;21376;50.954;4.716;2022-07-10T11:25:42;28.10;69.20
35240;DHT22;21376;50.954;4.716;2022-07-10T11:28:21;28.30;70.30
35240;DHT22;21376;50.954;4.716;2022-07-10T11:30:54;29.00;69.50
35240;DHT22;21376;50.954;4.716;2022-07-10T11:33:21;29.40;69.10
35240;DHT22;21376;50.954;4.716;2022-07-10T11:35:52;30.00;67.60
35240;DHT22;21376;50.954;4.716;2022-07-10T11:38:22;29.60;70.40
35240;DHT22;21376;50.954;4.716;2022-07-10T11:40:54;29.10;70.30
35240;DHT22;21376;50.954;4.716;2022-07-10T11:43:21;28.90;70.60
35240;DHT22;21376;50.954;4.716;2022-07-10T11:46:00;28.70;69.20
35240;DHT22;21376;50.954;4.716;2022-07-10T11:48:38;30.00;70.20
35240;DHT22;21376;50.954;4.716;2022-07-10T11:51:24;29.50;68.80
35240;DHT22;21376;50.954;4.716;2022-07-10T11:54:06;29.30;68.60
35240;DHT22;21376;50.954;4.716;2022-07-10T11:56:37;30.40;68.30
35240;DHT22;21376;50.954;4.716;2022-07-10T11:59:11;31.60;68.90
35240;DHT22;21376;50.954;4.716;2022-07-10T12:01:47;32.50;63.00
35240;DHT22;21376;50.954;4.716;2022-07-10T12:04:21;31.60;65.80
35240;DHT22;21376;50.954;4.716;2022-07-10T12:06:51;31.90;66.20
35240;DHT22;21376;50.954;4.716;2022-07-10T12:09:22;33.50;62.60
35240;DHT22;21376;50.954;4.716;2022-07-10T12:12:07;33.70;62.10
35240;DHT22;21376;50.954;4.716;2022-07-10T12:14:37;34.50;60.40
35240;DHT22;21376;50.954;4.716;2022-07-10T12:17:13;33.20;60.50
35240;DHT22;21376;50.954;4.716;2022-07-10T12:19:39;32.10;62.50
35240;DHT22;21376;50.954;4.716;2022-07-10T12:22:09;31.80;63.40
35240;DHT22;21376;50.954;4.716;2022-07-10T12:24:35;32.20;62.80
35240;DHT22;21376;50.954;4.716;2022-07-10T12:27:01;33.10;61.70
35240;DHT22;21376;50.954;4.716;2022-07-10T12:29:28;33.40;59.20
35240;DHT22;21376;50.954;4.716;2022-07-10T12:31:59;32.80;60.20
35240;DHT22;21376;50.954;4.716;2022-07-10T12:34:41;31.70;61.90
35240;DHT22;21376;50.954;4.716;2022-07-10T12:37:16;31.30;63.20
35240;DHT22;21376;50.954;4.716;2022-07-10T12:39:50;30.30;66.20
35240;DHT22;21376;50.954;4.716;2022-07-10T12:42:29;30.30;67.00
35240;DHT22;21376;50.954;4.716;2022-07-10T12:45:12;31.40;63.50
35240;DHT22;21376;50.954;4.716;2022-07-10T12:47:47;31.70;62.30
35240;DHT22;21376;50.954;4.716;2022-07-10T12:50:17;30.80;64.40
35240;DHT22;21376;50.954;4.716;2022-07-10T12:52:44;30.40;66.60
35240;DHT22;21376;50.954;4.716;2022-07-10T12:55:21;30.10;66.80
35240;DHT22;21376;50.954;4.716;2022-07-10T12:57:57;30.20;67.90
35240;DHT22;21376;50.954;4.716;2022-07-10T13:00:28;32.10;69.30
35240;DHT22;21376;50.954;4.716;2022-07-10T13:03:09;32.90;63.80
35240;DHT22;21376;50.954;4.716;2022-07-10T13:05:38;31.60;62.70
35240;DHT22;21376;50.954;4.716;2022-07-10T13:08:21;31.60;64.30
35240;DHT22;21376;50.954;4.716;2022-07-10T13:10:54;32.70;64.10
35240;DHT22;21376;50.954;4.716;2022-07-10T13:13:23;32.30;61.80
35240;DHT22;21376;50.954;4.716;2022-07-10T13:15:52;31.30;61.90
35240;DHT22;21376;50.954;4.716;2022-07-10T13:18:26;31.50;63.90
35240;DHT22;21376;50.954;4.716;2022-07-10T13:21:24;31.40;61.90
35240;DHT22;21376;50.954;4.716;2022-07-10T13:23:53;30.30;66.90
35240;DHT22;21376;50.954;4.716;2022-07-10T13:29:46;29.90;66.60
35240;DHT22;21376;50.954;4.716;2022-07-10T13:32:16;29.60;67.90
35240;DHT22;21376;50.954;4.716;2022-07-10T13:34:54;29.90;69.80
35240;DHT22;21376;50.954;4.716;2022-07-10T13:37:21;29.90;67.30
35240;DHT22;21376;50.954;4.716;2022-07-10T13:39:53;29.90;67.00
35240;DHT22;21376;50.954;4.716;2022-07-10T13:42:21;29.80;68.10
35240;DHT22;21376;50.954;4.716;2022-07-10T13:44:50;29.60;67.70
35240;DHT22;21376;50.954;4.716;2022-07-10T13:47:16;29.30;68.30
35240;DHT22;21376;50.954;4.716;2022-07-10T13:49:45;29.00;69.80
35240;DHT22;21376;50.954;4.716;2022-07-10T13:52:12;28.90;68.90
35240;DHT22;21376;50.954;4.716;2022-07-10T13:54:58;28.90;71.70
35240;DHT22;21376;50.954;4.716;2022-07-10T13:57:46;28.50;72.60
35240;DHT22;21376;50.954;4.716;2022-07-10T14:00:19;28.90;75.70
35240;DHT22;21376;50.954;4.716;2022-07-10T14:02:48;28.90;71.40
35240;DHT22;21376;50.954;4.716;2022-07-10T14:10:08;29.60;68.80
35240;DHT22;21376;50.954;4.716;2022-07-10T14:12:47;29.70;70.50
35240;DHT22;21376;50.954;4.716;2022-07-10T14:15:16;29.80;71.10
35240;DHT22;21376;50.954;4.716;2022-07-10T14:17:42;29.90;68.90
35240;DHT22;21376;50.954;4.716;2022-07-10T14:20:15;29.70;67.50
35240;DHT22;21376;50.954;4.716;2022-07-10T14:22:42;29.10;69.50
35240;DHT22;21376;50.954;4.716;2022-07-10T14:28:24;28.60;71.90
35240;DHT22;21376;50.954;4.716;2022-07-10T14:30:53;28.40;73.20
35240;DHT22;21376;50.954;4.716;2022-07-10T14:33:24;28.10;75.60
35240;DHT22;21376;50.954;4.716;2022-07-10T14:35:50;28.00;79.00
35240;DHT22;21376;50.954;4.716;2022-07-10T14:38:22;27.60;75.50
35240;DHT22;21376;50.954;4.716;2022-07-10T14:40:51;27.60;75.90
35240;DHT22;21376;50.954;4.716;2022-07-10T14:43:41;27.60;76.80
35240;DHT22;21376;50.954;4.716;2022-07-10T14:46:10;27.80;76.10
35240;DHT22;21376;50.954;4.716;2022-07-10T14:48:41;28.00;76.40
35240;DHT22;21376;50.954;4.716;2022-07-10T14:51:17;28.00;76.10
35240;DHT22;21376;50.954;4.716;2022-07-10T14:53:48;28.60;75.50
35240;DHT22;21376;50.954;4.716;2022-07-10T14:56:14;28.50;74.10
35240;DHT22;21376;50.954;4.716;2022-07-10T14:58:47;28.40;77.80
35240;DHT22;21376;50.954;4.716;2022-07-10T15:01:36;28.80;72.30
35240;DHT22;21376;50.954;4.716;2022-07-10T15:04:04;29.00;74.70
35240;DHT22;21376;50.954;4.716;2022-07-10T15:06:32;28.80;73.10
35240;DHT22;21376;50.954;4.716;2022-07-10T15:09:19;28.80;71.80
35240;DHT22;21376;50.954;4.716;2022-07-10T15:11:48;28.80;76.50
35240;DHT22;21376;50.954;4.716;2022-07-10T15:14:19;28.80;73.20
35240;DHT22;21376;50.954;4.716;2022-07-10T15:16:45;28.90;73.40
35240;DHT22;21376;50.954;4.716;2022-07-10T15:19:11;28.70;72.80
35240;DHT22;21376;50.954;4.716;2022-07-10T15:22:10;28.40;72.60
35240;DHT22;21376;50.954;4.716;2022-07-10T15:24:39;28.10;75.20
35240;DHT22;21376;50.954;4.716;2022-07-10T15:27:12;27.70;76.90
35240;DHT22;21376;50.954;4.716;2022-07-10T15:32:38;28.50;76.60
35240;DHT22;21376;50.954;4.716;2022-07-10T15:35:05;28.50;74.60
35240;DHT22;21376;50.954;4.716;2022-07-10T15:37:41;28.20;73.30
35240;DHT22;21376;50.954;4.716;2022-07-10T15:40:23;27.90;74.80
35240;DHT22;21376;50.954;4.716;2022-07-10T15:42:49;28.20;74.90
35240;DHT22;21376;50.954;4.716;2022-07-10T15:45:18;28.30;74.70
35240;DHT22;21376;50.954;4.716;2022-07-10T15:47:47;28.10;77.80
35240;DHT22;21376;50.954;4.716;2022-07-10T15:50:16;28.10;76.10
35240;DHT22;21376;50.954;4.716;2022-07-10T15:52:45;28.10;74.00
35240;DHT22;21376;50.954;4.716;2022-07-10T15:55:37;28.00;74.90
35240;DHT22;21376;50.954;4.716;2022-07-10T15:58:03;27.80;75.60
35240;DHT22;21376;50.954;4.716;2022-07-10T16:00:31;27.60;76.00
35240;DHT22;21376;50.954;4.716;2022-07-10T16:03:00;27.30;77.30
35240;DHT22;21376;50.954;4.716;2022-07-10T16:05:35;27.30;75.30
35240;DHT22;21376;50.954;4.716;2022-07-10T16:08:00;27.40;78.00
35240;DHT22;21376;50.954;4.716;2022-07-10T16:10:52;27.70;75.80
35240;DHT22;21376;50.954;4.716;2022-07-10T16:13:25;28.00;77.20
35240;DHT22;21376;50.954;4.716;2022-07-10T16:15:57;27.50;75.90
35240;DHT22;21376;50.954;4.716;2022-07-10T16:18:39;27.50;75.80
35240;DHT22;21376;50.954;4.716;2022-07-10T16:21:08;27.00;77.80
35240;DHT22;21376;50.954;4.716;2022-07-10T16:23:34;26.70;78.90
35240;DHT22;21376;50.954;4.716;2022-07-10T16:26:03;27.00;76.80
35240;DHT22;21376;50.954;4.716;2022-07-10T16:28:39;26.80;79.10
35240;DHT22;21376;50.954;4.716;2022-07-10T16:31:08;26.60;78.80
35240;DHT22;21376;50.954;4.716;2022-07-10T16:33:37;26.60;78.80
35240;DHT22;21376;50.954;4.716;2022-07-10T16:36:10;26.30;79.70
35240;DHT22;21376;50.954;4.716;2022-07-10T16:38:39;26.30;80.20
35240;DHT22;21376;50.954;4.716;2022-07-10T16:41:08;26.10;79.70
35240;DHT22;21376;50.954;4.716;2022-07-10T16:43:37;26.00;79.40
35240;DHT22;21376;50.954;4.716;2022-07-10T16:46:06;25.80;79.90
35240;DHT22;21376;50.954;4.716;2022-07-10T16:48:32;26.10;81.10
35240;DHT22;21376;50.954;4.716;2022-07-10T16:50:58;26.20;79.40
35240;DHT22;21376;50.954;4.716;2022-07-10T16:53:27;26.00;77.70
35240;DHT22;21376;50.954;4.716;2022-07-10T16:55:56;26.00;78.10
35240;DHT22;21376;50.954;4.716;2022-07-10T16:58:25;25.80;77.40
35240;DHT22;21376;50.954;4.716;2022-07-10T17:01:27;25.60;78.70
35240;DHT22;21376;50.954;4.716;2022-07-10T17:03:56;25.60;78.80
35240;DHT22;21376;50.954;4.716;2022-07-10T17:06:25;25.20;79.70
35240;DHT22;21376;50.954;4.716;2022-07-10T17:08:52;25.20;79.20
35240;DHT22;21376;50.954;4.716;2022-07-10T17:11:21;24.90;80.30
35240;DHT22;21376;50.954;4.716;2022-07-10T17:13:50;24.70;82.00
35240;DHT22;21376;50.954;4.716;2022-07-10T17:16:20;24.50;82.70
35240;DHT22;21376;50.954;4.716;2022-07-10T17:18:49;24.70;82.30
35240;DHT22;21376;50.954;4.716;2022-07-10T17:21:19;24.30;81.60
35240;DHT22;21376;50.954;4.716;2022-07-10T17:23:50;24.40;81.70